createdAt,value
2018-07-23T00:00:20.234Z,18.57
2018-07-23T00:01:20.219Z,18.61
2018-07-23T00:02:20.201Z,18.50
2018-07-23T00:03:20.184Z,18.57
2018-07-23T00:04:20.172Z,18.52
2018-07-23T00:05:20.150Z,18.54
2018-07-23T00:06:20.137Z,18.52
2018-07-23T00:07:20.118Z,18.59
2018-07-23T00:08:20.099Z,18.65
2018-07-23T00:09:20.082Z,18.62
2018-07-23T00:10:20.064Z,18.59
2018-07-23T00:11:20.046Z,18.49
2018-07-23T00:12:20.030Z,18.54
2018-07-23T00:13:20.013Z,18.49
2018-07-23T00:14:19.997Z,18.42
2018-07-23T00:15:19.978Z,18.37
2018-07-23T00:16:19.961Z,18.40
2018-07-23T00:17:19.945Z,18.46
2018-07-23T00:18:19.927Z,18.37
2018-07-23T00:19:19.908Z,18.46
2018-07-23T00:20:19.891Z,18.34
2018-07-23T00:21:19.874Z,18.46
2018-07-23T00:22:19.860Z,18.42
2018-07-23T00:23:19.841Z,18.44
2018-07-23T00:24:19.823Z,18.50
2018-07-23T00:25:19.807Z,18.55
2018-07-23T00:26:19.790Z,18.54
2018-07-23T00:27:19.771Z,18.61
2018-07-23T00:28:19.756Z,18.67
2018-07-23T00:29:19.736Z,18.62
2018-07-23T00:30:19.719Z,18.62
2018-07-23T00:31:19.702Z,18.61
2018-07-23T00:32:19.686Z,18.65
2018-07-23T00:33:19.668Z,18.62
2018-07-23T00:34:19.650Z,18.68
2018-07-23T00:35:19.632Z,18.70
2018-07-23T00:36:19.617Z,18.59
2018-07-23T00:37:19.599Z,18.68
2018-07-23T00:38:19.581Z,18.67
2018-07-23T00:39:19.564Z,18.62
2018-07-23T00:40:19.547Z,18.64
2018-07-23T00:41:19.531Z,18.62
2018-07-23T00:42:19.516Z,18.62
2018-07-23T00:43:19.496Z,18.62
2018-07-23T00:44:19.478Z,18.68
2018-07-23T00:45:19.464Z,18.68
2018-07-23T00:46:19.446Z,18.65
2018-07-23T00:47:19.430Z,18.62
2018-07-23T00:48:19.409Z,18.52
2018-07-23T00:49:19.393Z,18.59
2018-07-23T00:50:19.378Z,18.54
2018-07-23T00:51:19.365Z,18.55
2018-07-23T00:52:19.341Z,18.57
2018-07-23T00:53:21.275Z,18.54
2018-07-23T00:54:19.308Z,18.49
2018-07-23T00:55:19.288Z,18.49
2018-07-23T00:56:19.273Z,18.50
2018-07-23T00:57:19.255Z,18.49
2018-07-23T00:58:19.239Z,18.52
2018-07-23T00:59:19.221Z,18.64
2018-07-23T01:00:19.203Z,18.61
2018-07-23T01:01:19.187Z,18.67
2018-07-23T01:02:19.170Z,18.62
2018-07-23T01:03:19.152Z,18.62
2018-07-23T01:04:19.134Z,18.62
2018-07-23T01:05:19.119Z,18.67
2018-07-23T01:06:19.100Z,18.65
2018-07-23T01:07:19.084Z,18.61
2018-07-23T01:08:19.065Z,18.64
2018-07-23T01:09:19.050Z,18.62
2018-07-23T01:10:19.034Z,18.68
2018-07-23T01:11:19.014Z,18.62
2018-07-23T01:12:18.997Z,18.62
2018-07-23T01:13:18.982Z,18.68
2018-07-23T01:14:18.964Z,18.57
2018-07-23T01:15:20.447Z,18.61
2018-07-23T01:16:18.929Z,18.68
2018-07-23T01:17:18.911Z,18.61
2018-07-23T01:18:18.896Z,18.62
2018-07-23T01:19:18.876Z,18.67
2018-07-23T01:20:18.861Z,18.61
2018-07-23T01:21:18.844Z,18.65
2018-07-23T01:22:18.827Z,18.70
2018-07-23T01:23:18.808Z,18.64
2018-07-23T01:24:18.792Z,18.67
2018-07-23T01:25:18.775Z,18.67
2018-07-23T01:26:18.759Z,18.73
2018-07-23T01:27:18.740Z,18.68
2018-07-23T01:28:18.724Z,18.68
2018-07-23T01:29:18.707Z,18.67
2018-07-23T01:30:18.690Z,18.54
2018-07-23T01:31:18.672Z,18.61
2018-07-23T01:32:18.654Z,18.46
2018-07-23T01:33:18.638Z,18.42
2018-07-23T01:34:18.622Z,18.42
2018-07-23T01:35:18.602Z,18.37
2018-07-23T01:36:18.587Z,18.43
2018-07-23T01:37:18.570Z,18.49
2018-07-23T01:38:18.552Z,18.46
2018-07-23T01:39:18.534Z,18.37
2018-07-23T01:40:18.519Z,18.31
2018-07-23T01:41:18.501Z,18.34
2018-07-23T01:42:18.484Z,18.28
2018-07-23T01:43:18.467Z,18.33
2018-07-23T01:44:18.449Z,18.28
2018-07-23T01:45:18.434Z,18.28
2018-07-23T01:46:18.414Z,18.33
2018-07-23T01:47:19.899Z,18.34
2018-07-23T01:48:18.380Z,18.36
2018-07-23T01:49:18.364Z,18.37
2018-07-23T01:50:18.347Z,18.37
2018-07-23T01:51:18.328Z,18.36
2018-07-23T01:52:18.312Z,18.36
2018-07-23T01:53:19.246Z,18.33
2018-07-23T01:54:18.278Z,18.36
2018-07-23T01:55:18.259Z,18.37
2018-07-23T01:56:18.244Z,18.37
2018-07-23T01:57:18.225Z,18.39
2018-07-23T01:58:18.209Z,18.37
2018-07-23T01:59:18.190Z,18.36
2018-07-23T02:00:18.179Z,18.34
2018-07-23T02:01:18.156Z,18.39
2018-07-23T02:02:18.141Z,18.33
2018-07-23T02:03:18.122Z,18.29
2018-07-23T02:04:18.113Z,18.40
2018-07-23T02:05:18.088Z,18.34
2018-07-23T02:06:18.070Z,18.39
2018-07-23T02:07:18.052Z,18.39
2018-07-23T02:08:18.040Z,18.29
2018-07-23T02:09:18.018Z,18.40
2018-07-23T02:10:22.507Z,18.31
2018-07-23T02:11:17.986Z,18.31
2018-07-23T02:12:17.966Z,18.36
2018-07-23T02:13:17.949Z,18.28
2018-07-23T02:14:17.933Z,18.33
2018-07-23T02:15:17.915Z,18.31
2018-07-23T02:16:18.650Z,18.33
2018-07-23T02:17:17.882Z,18.28
2018-07-23T02:18:17.868Z,18.34
2018-07-23T02:19:17.846Z,18.34
2018-07-23T02:20:17.829Z,18.37
2018-07-23T02:21:17.816Z,18.39
2018-07-23T02:22:17.796Z,18.46
2018-07-23T02:23:17.779Z,18.36
2018-07-23T02:24:17.760Z,18.37
2018-07-23T02:25:17.743Z,18.42
2018-07-23T02:26:17.726Z,18.42
2018-07-23T02:27:17.708Z,18.37
2018-07-23T02:28:17.691Z,18.40
2018-07-23T02:29:17.675Z,18.43
2018-07-23T02:30:17.659Z,18.40
2018-07-23T02:31:17.641Z,18.39
2018-07-23T02:32:17.623Z,18.37
2018-07-23T02:33:17.607Z,18.37
2018-07-23T02:34:17.591Z,18.37
2018-07-23T02:35:17.574Z,18.43
2018-07-23T02:36:17.555Z,18.39
2018-07-23T02:37:17.538Z,18.44
2018-07-23T02:38:17.521Z,18.39
2018-07-23T02:39:17.502Z,18.50
2018-07-23T02:40:17.488Z,18.43
2018-07-23T02:41:17.469Z,18.49
2018-07-23T02:42:17.451Z,18.39
2018-07-23T02:43:17.435Z,18.36
2018-07-23T02:44:17.417Z,18.34
2018-07-23T02:45:17.399Z,18.37
2018-07-23T02:46:17.382Z,18.42
2018-07-23T02:47:18.866Z,18.43
2018-07-23T02:48:17.349Z,18.31
2018-07-23T02:49:17.331Z,18.34
2018-07-23T02:50:17.314Z,18.34
2018-07-23T02:51:17.296Z,18.39
2018-07-23T02:52:17.279Z,18.29
2018-07-23T02:53:17.562Z,18.34
2018-07-23T02:54:17.248Z,18.33
2018-07-23T02:55:17.226Z,18.31
2018-07-23T02:56:17.210Z,18.33
2018-07-23T02:57:17.193Z,18.31
2018-07-23T02:58:17.176Z,18.29
2018-07-23T02:59:17.157Z,18.36
2018-07-23T03:00:17.142Z,18.39
2018-07-23T03:01:17.124Z,18.39
2018-07-23T03:02:17.108Z,18.39
2018-07-23T03:03:17.090Z,18.37
2018-07-23T03:04:17.077Z,18.39
2018-07-23T03:05:17.056Z,18.40
2018-07-23T03:06:17.052Z,18.36
2018-07-23T03:07:17.020Z,18.36
2018-07-23T03:08:17.004Z,18.40
2018-07-23T03:09:18.489Z,18.37
2018-07-23T03:10:16.969Z,18.34
2018-07-23T03:11:16.952Z,18.34
2018-07-23T03:12:16.935Z,18.34
2018-07-23T03:13:16.917Z,18.34
2018-07-23T03:14:16.901Z,18.25
2018-07-23T03:15:16.882Z,18.37
2018-07-23T03:16:16.864Z,18.36
2018-07-23T03:17:16.848Z,18.34
2018-07-23T03:18:16.832Z,18.31
2018-07-23T03:19:16.818Z,18.37
2018-07-23T03:20:16.799Z,18.36
2018-07-23T03:21:16.778Z,18.36
2018-07-23T03:22:16.764Z,18.39
2018-07-23T03:23:16.745Z,18.31
2018-07-23T03:24:16.727Z,18.36
2018-07-23T03:25:16.709Z,18.34
2018-07-23T03:26:16.694Z,18.31
2018-07-23T03:27:16.674Z,18.33
2018-07-23T03:28:16.657Z,18.34
2018-07-23T03:29:16.639Z,18.31
2018-07-23T03:30:16.622Z,18.33
2018-07-23T03:31:16.610Z,18.29
2018-07-23T03:32:16.589Z,18.34
2018-07-23T03:33:16.571Z,18.36
2018-07-23T03:34:16.557Z,18.33
2018-07-23T03:35:16.536Z,18.33
2018-07-23T03:36:17.270Z,18.36
2018-07-23T03:37:16.502Z,18.39
2018-07-23T03:38:16.488Z,18.36
2018-07-23T03:39:16.467Z,18.44
2018-07-23T03:40:16.450Z,18.34
2018-07-23T03:41:16.431Z,18.37
2018-07-23T03:42:16.414Z,18.33
2018-07-23T03:43:16.397Z,18.36
2018-07-23T03:44:16.382Z,18.31
2018-07-23T03:45:16.362Z,18.34
2018-07-23T03:46:16.346Z,18.40
2018-07-23T03:47:16.328Z,18.36
2018-07-23T03:48:16.352Z,18.37
2018-07-23T03:49:16.293Z,18.37
2018-07-23T03:50:16.276Z,18.40
2018-07-23T03:51:16.259Z,18.40
2018-07-23T03:52:16.242Z,18.37
2018-07-23T03:53:16.225Z,18.43
2018-07-23T03:54:16.210Z,18.37
2018-07-23T03:55:16.190Z,18.37
2018-07-23T03:56:16.172Z,18.44
2018-07-23T03:57:16.156Z,18.49
2018-07-23T03:58:16.139Z,18.43
2018-07-23T03:59:16.121Z,18.43
2018-07-23T04:00:16.104Z,18.46
2018-07-23T04:01:16.086Z,18.50
2018-07-23T04:02:16.069Z,18.46
2018-07-23T04:03:16.052Z,18.42
2018-07-23T04:04:16.035Z,18.44
2018-07-23T04:05:16.017Z,18.40
2018-07-23T04:06:16.000Z,18.39
2018-07-23T04:07:15.983Z,18.52
2018-07-23T04:08:15.969Z,18.44
2018-07-23T04:09:15.948Z,18.36
2018-07-23T04:10:15.931Z,18.37
2018-07-23T04:11:15.913Z,18.39
2018-07-23T04:12:15.897Z,18.39
2018-07-23T04:13:15.879Z,18.34
2018-07-23T04:14:15.863Z,18.36
2018-07-23T04:15:15.843Z,18.37
2018-07-23T04:16:15.826Z,18.36
2018-07-23T04:17:15.811Z,18.46
2018-07-23T04:18:15.792Z,18.43
2018-07-23T04:19:15.776Z,18.43
2018-07-23T04:20:15.757Z,18.43
2018-07-23T04:21:15.741Z,18.42
2018-07-23T04:22:15.724Z,18.46
2018-07-23T04:23:15.706Z,18.47
2018-07-23T04:24:15.690Z,18.50
2018-07-23T04:25:15.672Z,18.43
2018-07-23T04:26:15.653Z,18.49
2018-07-23T04:27:15.637Z,18.57
2018-07-23T04:28:15.620Z,18.61
2018-07-23T04:29:15.601Z,18.58
2018-07-23T04:30:15.585Z,18.58
2018-07-23T04:31:15.567Z,18.67
2018-07-23T04:32:15.550Z,18.67
2018-07-23T04:33:15.532Z,18.61
2018-07-23T04:34:15.515Z,18.64
2018-07-23T04:35:16.252Z,18.62
2018-07-23T04:36:15.482Z,18.62
2018-07-23T04:37:15.463Z,18.61
2018-07-23T04:38:15.446Z,18.62
2018-07-23T04:39:15.429Z,18.62
2018-07-23T04:40:15.410Z,18.65
2018-07-23T04:41:15.393Z,18.72
2018-07-23T04:42:15.381Z,18.59
2018-07-23T04:43:15.360Z,18.70
2018-07-23T04:44:15.342Z,18.64
2018-07-23T04:45:15.325Z,18.65
2018-07-23T04:46:15.309Z,18.74
2018-07-23T04:47:15.294Z,18.72
2018-07-23T04:48:15.273Z,18.55
2018-07-23T04:49:15.261Z,18.54
2018-07-23T04:50:15.239Z,18.50
2018-07-23T04:51:15.222Z,18.55
2018-07-23T04:52:15.205Z,18.50
2018-07-23T04:53:15.191Z,18.54
2018-07-23T04:54:15.171Z,18.52
2018-07-23T04:55:15.153Z,18.57
2018-07-23T04:56:15.137Z,18.54
2018-07-23T04:57:15.120Z,18.70
2018-07-23T04:58:15.103Z,18.62
2018-07-23T04:59:15.085Z,18.68
2018-07-23T05:00:15.067Z,18.64
2018-07-23T05:01:15.051Z,18.68
2018-07-23T05:02:15.035Z,18.72
2018-07-23T05:03:15.015Z,18.79
2018-07-23T05:04:14.998Z,18.76
2018-07-23T05:05:14.981Z,18.76
2018-07-23T05:06:14.964Z,18.67
2018-07-23T05:07:14.947Z,18.67
2018-07-23T05:08:14.931Z,18.77
2018-07-23T05:09:14.913Z,18.74
2018-07-23T05:10:14.898Z,18.65
2018-07-23T05:11:14.883Z,18.76
2018-07-23T05:12:14.860Z,18.83
2018-07-23T05:13:14.844Z,18.83
2018-07-23T05:14:14.828Z,18.77
2018-07-23T05:15:14.809Z,18.80
2018-07-23T05:16:14.794Z,18.80
2018-07-23T05:17:14.775Z,18.92
2018-07-23T05:18:14.759Z,18.83
2018-07-23T05:19:14.741Z,18.84
2018-07-23T05:20:14.727Z,18.86
2018-07-23T05:21:14.710Z,18.87
2018-07-23T05:22:14.690Z,18.86
2018-07-23T05:23:14.672Z,18.92
2018-07-23T05:24:14.655Z,18.84
2018-07-23T05:25:14.645Z,18.90
2018-07-23T05:26:14.645Z,18.87
2018-07-23T05:27:17.608Z,18.97
2018-07-23T05:28:14.588Z,18.92
2018-07-23T05:29:14.572Z,19.01
2018-07-23T05:30:14.555Z,18.92
2018-07-23T05:31:14.540Z,19.01
2018-07-23T05:32:14.519Z,19.01
2018-07-23T05:33:14.503Z,19.01
2018-07-23T05:34:14.485Z,18.99
2018-07-23T05:35:14.467Z,19.08
2018-07-23T05:36:14.452Z,19.06
2018-07-23T05:37:14.435Z,19.14
2018-07-23T05:38:14.453Z,19.08
2018-07-23T05:39:14.400Z,18.99
2018-07-23T05:40:14.383Z,19.02
2018-07-23T05:41:14.370Z,18.97
2018-07-23T05:42:14.349Z,18.97
2018-07-23T05:43:14.333Z,18.97
2018-07-23T05:44:15.068Z,19.01
2018-07-23T05:45:14.299Z,19.05
2018-07-23T05:46:14.281Z,18.95
2018-07-23T05:47:14.264Z,19.05
2018-07-23T05:48:14.249Z,19.08
2018-07-23T05:49:14.230Z,19.11
2018-07-23T05:50:14.214Z,19.10
2018-07-23T05:51:14.196Z,19.08
2018-07-23T05:52:14.180Z,19.06
2018-07-23T05:53:14.164Z,19.14
2018-07-23T05:54:14.147Z,19.11
2018-07-23T05:55:14.129Z,19.13
2018-07-23T05:56:14.113Z,19.23
2018-07-23T05:57:14.096Z,19.17
2018-07-23T05:58:14.080Z,19.24
2018-07-23T05:59:14.113Z,19.23
2018-07-23T06:00:14.044Z,19.35
2018-07-23T06:01:14.028Z,19.29
2018-07-23T06:02:14.030Z,19.33
2018-07-23T06:03:13.995Z,19.39
2018-07-23T06:04:13.979Z,19.39
2018-07-23T06:05:13.961Z,19.39
2018-07-23T06:06:14.002Z,19.43
2018-07-23T06:07:13.927Z,19.38
2018-07-23T06:08:13.913Z,19.43
2018-07-23T06:09:13.894Z,19.43
2018-07-23T06:10:13.879Z,19.43
2018-07-23T06:11:13.860Z,19.43
2018-07-23T06:12:13.845Z,19.43
2018-07-23T06:13:13.928Z,19.47
2018-07-23T06:14:13.811Z,19.43
2018-07-23T06:15:13.794Z,19.42
2018-07-23T06:16:13.778Z,19.58
2018-07-23T06:17:13.765Z,19.51
2018-07-23T06:18:13.745Z,19.61
2018-07-23T06:19:13.727Z,19.57
2018-07-23T06:20:13.712Z,19.57
2018-07-23T06:21:13.699Z,19.51
2018-07-23T06:22:13.679Z,19.51
2018-07-23T06:23:13.664Z,19.51
2018-07-23T06:24:13.646Z,19.57
2018-07-23T06:25:13.631Z,19.68
2018-07-23T06:26:13.613Z,19.68
2018-07-23T06:27:13.596Z,19.68
2018-07-23T06:28:13.580Z,19.51
2018-07-23T06:29:13.564Z,19.63
2018-07-23T06:30:13.555Z,19.57
2018-07-23T06:31:13.529Z,19.57
2018-07-23T06:32:13.553Z,19.51
2018-07-23T06:33:13.501Z,19.57
2018-07-23T06:34:13.481Z,19.55
2018-07-23T06:35:13.467Z,19.40
2018-07-23T06:36:13.447Z,19.40
2018-07-23T06:37:13.432Z,19.42
2018-07-23T06:38:13.417Z,19.42
2018-07-23T06:39:13.398Z,19.55
2018-07-23T06:40:13.383Z,19.53
2018-07-23T06:41:13.367Z,19.48
2018-07-23T06:42:13.351Z,19.53
2018-07-23T06:43:13.381Z,19.48
2018-07-23T06:44:13.318Z,19.42
2018-07-23T06:45:13.302Z,19.47
2018-07-23T06:46:13.286Z,19.60
2018-07-23T06:47:13.268Z,19.61
2018-07-23T06:48:13.252Z,19.57
2018-07-23T06:49:13.236Z,19.61
2018-07-23T06:50:13.219Z,19.65
2018-07-23T06:51:13.202Z,19.68
2018-07-23T06:52:13.187Z,19.70
2018-07-23T06:53:13.172Z,19.72
2018-07-23T06:54:13.156Z,19.79
2018-07-23T06:55:13.138Z,19.91
2018-07-23T06:56:13.122Z,19.97
2018-07-23T06:57:13.105Z,20.00
2018-07-23T06:58:13.090Z,19.86
2018-07-23T06:59:13.073Z,19.73
2018-07-23T07:00:13.058Z,19.58
2018-07-23T07:01:13.042Z,19.60
2018-07-23T07:02:13.025Z,19.72
2018-07-23T07:03:13.054Z,19.65
2018-07-23T07:04:12.993Z,19.68
2018-07-23T07:05:12.977Z,19.80
2018-07-23T07:06:13.017Z,19.86
2018-07-23T07:07:12.944Z,19.76
2018-07-23T07:08:12.928Z,19.78
2018-07-23T07:09:12.912Z,19.86
2018-07-23T07:10:12.896Z,19.94
2018-07-23T07:11:12.879Z,19.98
2018-07-23T07:12:12.863Z,19.84
2018-07-23T07:13:12.848Z,19.84
2018-07-23T07:14:12.832Z,19.88
2018-07-23T07:15:12.814Z,19.93
2018-07-23T07:16:12.799Z,19.95
2018-07-23T07:17:12.784Z,20.12
2018-07-23T07:18:12.767Z,20.27
2018-07-23T07:19:12.751Z,20.20
2018-07-23T07:20:12.736Z,20.27
2018-07-23T07:21:12.720Z,20.35
2018-07-23T07:22:12.705Z,20.28
2018-07-23T07:23:12.689Z,20.16
2018-07-23T07:24:12.671Z,20.38
2018-07-23T07:25:12.655Z,20.53
2018-07-23T07:26:12.640Z,20.53
2018-07-23T07:27:12.624Z,20.61
2018-07-23T07:28:12.608Z,20.61
2018-07-23T07:29:13.344Z,20.69
2018-07-23T07:30:12.576Z,20.81
2018-07-23T07:31:12.561Z,20.59
2018-07-23T07:32:12.547Z,20.76
2018-07-23T07:33:12.530Z,20.77
2018-07-23T07:34:12.514Z,20.87
2018-07-23T07:35:12.499Z,20.98
2018-07-23T07:36:12.483Z,21.04
2018-07-23T07:37:12.467Z,20.90
2018-07-23T07:38:12.501Z,20.72
2018-07-23T07:39:12.439Z,20.69
2018-07-23T07:40:12.421Z,20.87
2018-07-23T07:41:12.405Z,20.95
2018-07-23T07:42:12.391Z,21.06
2018-07-23T07:43:12.374Z,21.04
2018-07-23T07:44:12.360Z,20.69
2018-07-23T07:45:12.345Z,20.81
2018-07-23T07:46:12.330Z,20.93
2018-07-23T07:47:12.313Z,21.04
2018-07-23T07:48:12.299Z,21.32
2018-07-23T07:49:12.283Z,21.50
2018-07-23T07:50:12.268Z,21.57
2018-07-23T07:51:12.253Z,21.63
2018-07-23T07:52:12.238Z,21.59
2018-07-23T07:53:12.225Z,21.74
2018-07-23T07:54:12.219Z,21.85
2018-07-23T07:55:12.195Z,21.97
2018-07-23T07:56:12.216Z,21.92
2018-07-23T07:57:12.166Z,22.06
2018-07-23T07:58:12.152Z,22.14
2018-07-23T07:59:12.192Z,22.10
2018-07-23T08:00:12.121Z,22.23
2018-07-23T08:01:12.111Z,22.23
2018-07-23T08:02:12.094Z,22.44
2018-07-23T08:03:12.080Z,22.59
2018-07-23T08:04:12.068Z,22.38
2018-07-23T08:05:12.051Z,22.09
2018-07-23T08:06:13.538Z,21.79
2018-07-23T08:07:12.089Z,21.79
2018-07-23T08:08:12.008Z,22.02
2018-07-23T08:09:11.993Z,22.20
2018-07-23T08:10:11.980Z,22.41
2018-07-23T08:11:11.967Z,22.53
2018-07-23T08:12:11.952Z,22.29
2018-07-23T08:13:11.936Z,22.39
2018-07-23T08:14:11.923Z,22.50
2018-07-23T08:15:11.909Z,22.57
2018-07-23T08:16:11.896Z,22.47
2018-07-23T08:17:11.884Z,22.47
2018-07-23T08:18:11.867Z,22.41
2018-07-23T08:19:11.851Z,22.39
2018-07-23T08:20:11.838Z,22.46
2018-07-23T08:21:11.824Z,22.62
2018-07-23T08:22:11.810Z,22.67
2018-07-23T08:23:12.548Z,22.84
2018-07-23T08:24:11.782Z,22.94
2018-07-23T08:25:11.871Z,23.15
2018-07-23T08:26:11.756Z,23.23
2018-07-23T08:27:11.744Z,23.24
2018-07-23T08:28:11.726Z,23.27
2018-07-23T08:29:11.715Z,23.38
2018-07-23T08:30:11.700Z,23.26
2018-07-23T08:31:11.686Z,23.07
2018-07-23T08:32:11.836Z,22.93
2018-07-23T08:33:11.660Z,22.97
2018-07-23T08:34:11.645Z,23.01
2018-07-23T08:35:11.632Z,23.14
2018-07-23T08:36:11.619Z,23.23
2018-07-23T08:37:11.636Z,23.43
2018-07-23T08:38:11.592Z,23.55
2018-07-23T08:39:13.077Z,23.49
2018-07-23T08:40:11.563Z,23.34
2018-07-23T08:41:11.550Z,23.62
2018-07-23T08:42:11.536Z,23.65
2018-07-23T08:43:11.549Z,23.79
2018-07-23T08:44:11.510Z,23.76
2018-07-23T08:45:12.248Z,23.79
2018-07-23T08:46:11.485Z,23.80
2018-07-23T08:47:11.471Z,24.05
2018-07-23T08:48:11.458Z,23.90
2018-07-23T08:49:11.445Z,24.01
2018-07-23T08:50:11.433Z,24.01
2018-07-23T08:51:11.437Z,23.90
2018-07-23T08:52:11.407Z,23.82
2018-07-23T08:53:11.393Z,23.97
2018-07-23T08:54:11.380Z,24.00
2018-07-23T08:55:11.366Z,23.94
2018-07-23T08:56:11.375Z,23.95
2018-07-23T08:57:11.341Z,23.94
2018-07-23T08:58:11.329Z,23.62
2018-07-23T08:59:11.316Z,23.64
2018-07-23T09:00:11.303Z,23.50
2018-07-23T09:01:12.042Z,23.76
2018-07-23T09:02:11.282Z,23.67
2018-07-23T09:03:11.265Z,23.64
2018-07-23T09:04:11.254Z,23.77
2018-07-23T09:05:11.241Z,23.77
2018-07-23T09:06:11.228Z,23.79
2018-07-23T09:07:11.216Z,23.77
2018-07-23T09:08:11.202Z,23.75
2018-07-23T09:09:11.190Z,23.80
2018-07-23T09:10:11.177Z,23.75
2018-07-23T09:11:11.165Z,23.77
2018-07-23T09:12:12.652Z,23.72
2018-07-23T09:13:11.142Z,23.94
2018-07-23T09:14:11.181Z,23.97
2018-07-23T09:15:11.113Z,23.82
2018-07-23T09:16:11.102Z,23.65
2018-07-23T09:17:11.133Z,23.40
2018-07-23T09:18:12.578Z,23.43
2018-07-23T09:19:11.066Z,23.55
2018-07-23T09:20:11.051Z,23.65
2018-07-23T09:21:11.038Z,23.68
2018-07-23T09:22:11.067Z,23.65
2018-07-23T09:23:11.012Z,23.76
2018-07-23T09:24:11.010Z,23.72
2018-07-23T09:25:10.986Z,23.45
2018-07-23T09:26:10.975Z,23.38
2018-07-23T09:27:10.962Z,23.27
2018-07-23T09:28:10.949Z,23.34
2018-07-23T09:29:10.936Z,23.15
2018-07-23T09:30:10.926Z,23.27
2018-07-23T09:31:10.987Z,23.22
2018-07-23T09:32:10.897Z,22.99
2018-07-23T09:33:10.883Z,23.17
2018-07-23T09:34:10.871Z,23.23
2018-07-23T09:35:10.857Z,23.08
2018-07-23T09:36:10.844Z,23.01
2018-07-23T09:37:10.871Z,22.94
2018-07-23T09:38:10.819Z,22.97
2018-07-23T09:39:10.805Z,22.93
2018-07-23T09:40:10.792Z,22.96
2018-07-23T09:41:10.779Z,23.05
2018-07-23T09:42:10.766Z,22.93
2018-07-23T09:43:10.750Z,22.74
2018-07-23T09:44:10.738Z,22.54
2018-07-23T09:45:10.725Z,22.72
2018-07-23T09:46:13.715Z,22.65
2018-07-23T09:47:10.697Z,22.78
2018-07-23T09:48:10.683Z,22.82
2018-07-23T09:49:10.670Z,22.71
2018-07-23T09:50:10.658Z,22.62
2018-07-23T09:51:10.643Z,22.65
2018-07-23T09:52:10.629Z,22.90
2018-07-23T09:53:10.616Z,23.02
2018-07-23T09:54:10.602Z,23.07
2018-07-23T09:55:10.588Z,23.11
2018-07-23T09:56:10.574Z,23.40
2018-07-23T09:57:10.561Z,23.52
2018-07-23T09:58:10.550Z,23.61
2018-07-23T09:59:10.533Z,23.67
2018-07-23T10:00:10.520Z,23.62
2018-07-23T10:01:10.509Z,23.75
2018-07-23T10:02:10.494Z,23.79
2018-07-23T10:03:10.570Z,24.00
2018-07-23T10:04:10.465Z,24.07
2018-07-23T10:05:10.452Z,23.95
2018-07-23T10:06:10.440Z,23.94
2018-07-23T10:07:10.425Z,24.00
2018-07-23T10:08:13.417Z,24.01
2018-07-23T10:09:10.401Z,24.14
2018-07-23T10:10:10.387Z,24.16
2018-07-23T10:11:10.373Z,24.23
2018-07-23T10:12:10.362Z,24.19
2018-07-23T10:13:10.351Z,24.23
2018-07-23T10:14:10.334Z,24.23
2018-07-23T10:15:10.321Z,23.83
2018-07-23T10:16:10.311Z,23.76
2018-07-23T10:17:10.297Z,23.79
2018-07-23T10:18:10.284Z,23.95
2018-07-23T10:19:10.270Z,24.10
2018-07-23T10:20:10.256Z,24.13
2018-07-23T10:21:10.245Z,23.94
2018-07-23T10:22:10.274Z,23.79
2018-07-23T10:23:10.218Z,23.68
2018-07-23T10:24:10.208Z,23.58
2018-07-23T10:25:10.194Z,23.50
2018-07-23T10:26:10.180Z,23.62
2018-07-23T10:27:10.167Z,23.77
2018-07-23T10:28:10.155Z,23.85
2018-07-23T10:29:10.142Z,23.76
2018-07-23T10:30:10.130Z,23.71
2018-07-23T10:31:10.120Z,23.71
2018-07-23T10:32:10.103Z,23.72
2018-07-23T10:33:10.091Z,23.85
2018-07-23T10:34:10.078Z,23.98
2018-07-23T10:35:10.098Z,24.01
2018-07-23T10:36:10.054Z,23.94
2018-07-23T10:37:10.040Z,23.94
2018-07-23T10:38:10.029Z,24.19
2018-07-23T10:39:10.016Z,24.26
2018-07-23T10:40:11.506Z,24.22
2018-07-23T10:41:10.045Z,24.31
2018-07-23T10:42:09.988Z,24.52
2018-07-23T10:43:09.966Z,24.61
2018-07-23T10:44:09.953Z,24.64
2018-07-23T10:45:09.942Z,24.87
2018-07-23T10:46:09.930Z,24.94
2018-07-23T10:47:09.917Z,24.68
2018-07-23T10:48:09.905Z,24.54
2018-07-23T10:49:09.893Z,24.56
2018-07-23T10:50:09.882Z,24.50
2018-07-23T10:51:09.867Z,24.49
2018-07-23T10:52:09.856Z,24.00
2018-07-23T10:53:09.845Z,23.94
2018-07-23T10:54:09.831Z,24.12
2018-07-23T10:55:09.820Z,24.29
2018-07-23T10:56:09.807Z,24.45
2018-07-23T10:57:09.801Z,24.50
2018-07-23T10:58:09.784Z,24.63
2018-07-23T10:59:09.770Z,24.50
2018-07-23T11:00:09.759Z,24.50
2018-07-23T11:01:09.749Z,24.63
2018-07-23T11:02:09.737Z,24.88
2018-07-23T11:03:09.724Z,24.90
2018-07-23T11:04:09.747Z,25.07
2018-07-23T11:05:09.701Z,24.83
2018-07-23T11:06:09.690Z,24.75
2018-07-23T11:07:10.427Z,24.71
2018-07-23T11:08:09.666Z,24.75
2018-07-23T11:09:09.652Z,24.88
2018-07-23T11:10:09.642Z,24.53
2018-07-23T11:11:09.629Z,24.54
2018-07-23T11:12:09.619Z,24.60
2018-07-23T11:13:09.606Z,24.75
2018-07-23T11:14:09.595Z,24.77
2018-07-23T11:15:09.582Z,24.82
2018-07-23T11:16:09.571Z,24.29
2018-07-23T11:17:09.561Z,24.41
2018-07-23T11:18:09.549Z,24.56
2018-07-23T11:19:09.541Z,24.75
2018-07-23T11:20:09.523Z,24.91
2018-07-23T11:21:09.512Z,25.13
2018-07-23T11:22:09.501Z,25.19
2018-07-23T11:23:10.239Z,25.20
2018-07-23T11:24:09.482Z,25.25
2018-07-23T11:25:38.595Z,25.01
2018-07-23T11:26:09.454Z,25.06
2018-07-23T11:27:09.441Z,25.16
2018-07-23T11:28:09.430Z,25.37
2018-07-23T11:29:09.419Z,25.30
2018-07-23T11:30:09.411Z,25.31
2018-07-23T11:31:09.394Z,25.31
2018-07-23T11:32:09.443Z,25.25
2018-07-23T11:33:09.371Z,25.17
2018-07-23T11:34:09.361Z,25.09
2018-07-23T11:35:09.348Z,25.05
2018-07-23T11:36:09.336Z,25.19
2018-07-23T11:37:09.328Z,25.07
2018-07-23T11:38:09.312Z,25.10
2018-07-23T11:39:14.557Z,24.98
2018-07-23T11:40:09.288Z,24.79
2018-07-23T11:41:09.278Z,25.06
2018-07-23T11:42:09.265Z,25.32
2018-07-23T11:43:09.256Z,25.59
2018-07-23T11:44:09.242Z,25.82
2018-07-23T11:45:09.277Z,25.87
2018-07-23T11:46:09.220Z,25.91
2018-07-23T11:47:09.230Z,26.09
2018-07-23T11:48:09.195Z,26.11
2018-07-23T11:49:09.182Z,25.80
2018-07-23T11:50:09.170Z,25.79
2018-07-23T11:51:09.158Z,25.83
2018-07-23T11:52:14.360Z,25.59
2018-07-23T11:53:09.135Z,25.57
2018-07-23T11:54:09.125Z,25.47
2018-07-23T11:55:09.112Z,25.22
2018-07-23T11:56:09.105Z,24.88
2018-07-23T11:57:09.089Z,24.67
2018-07-23T11:58:09.077Z,24.67
2018-07-23T11:59:09.063Z,24.77
2018-07-23T12:00:09.052Z,25.01
2018-07-23T12:01:09.041Z,25.07
2018-07-23T12:02:09.033Z,24.94
2018-07-23T12:03:09.015Z,25.01
2018-07-23T12:04:10.407Z,24.94
2018-07-23T12:05:08.992Z,24.76
2018-07-23T12:06:08.980Z,24.67
2018-07-23T12:07:08.968Z,24.57
2018-07-23T12:08:08.956Z,24.63
2018-07-23T12:09:08.943Z,24.64
2018-07-23T12:10:08.932Z,24.50
2018-07-23T12:11:08.918Z,24.41
2018-07-23T12:12:08.906Z,24.49
2018-07-23T12:13:08.900Z,24.54
2018-07-23T12:14:08.883Z,24.80
2018-07-23T12:15:08.870Z,24.76
2018-07-23T12:16:08.861Z,24.67
2018-07-23T12:17:08.889Z,24.73
2018-07-23T12:18:08.833Z,24.77
2018-07-23T12:19:08.820Z,24.94
2018-07-23T12:20:08.809Z,25.02
2018-07-23T12:21:08.795Z,25.15
2018-07-23T12:22:08.784Z,25.34
2018-07-23T12:23:08.771Z,25.27
2018-07-23T12:24:08.760Z,25.12
2018-07-23T12:25:08.747Z,25.17
2018-07-23T12:26:08.756Z,25.28
2018-07-23T12:27:08.721Z,25.47
2018-07-23T12:28:10.212Z,25.68
2018-07-23T12:29:08.699Z,25.80
2018-07-23T12:30:08.687Z,26.02
2018-07-23T12:31:08.672Z,26.17
2018-07-23T12:32:08.662Z,26.39
2018-07-23T12:33:08.651Z,26.47
2018-07-23T12:34:10.890Z,26.65
2018-07-23T12:35:08.624Z,26.76
2018-07-23T12:36:08.613Z,26.96
2018-07-23T12:37:08.600Z,26.87
2018-07-23T12:38:08.590Z,26.84
2018-07-23T12:39:08.576Z,26.77
2018-07-23T12:40:08.566Z,26.81
2018-07-23T12:41:08.554Z,26.84
2018-07-23T12:42:08.542Z,26.61
2018-07-23T12:43:08.529Z,26.46
2018-07-23T12:44:08.518Z,26.44
2018-07-23T12:45:08.506Z,26.68
2018-07-23T12:46:08.495Z,26.77
2018-07-23T12:47:08.536Z,26.77
2018-07-23T12:48:08.471Z,26.50
2018-07-23T12:49:08.460Z,26.46
2018-07-23T12:50:08.448Z,25.83
2018-07-23T12:51:08.437Z,25.47
2018-07-23T12:52:08.424Z,25.32